Time;durP1;ratioP1;P1;durP2;ratioP2;P2;SDS_P1;SDS_P2;PMS_P1;PMS_P2;Temp;Humidity;BMP_temperature;BMP_pressure;BME280_temperature;BME280_humidity;BME280_pressure;Samples;Min_cycle;Max_cycle;Signal;HPM_P1;HPM_P2
2023/03/30 00:00:54;;;;;;;5.13;3.80;;;;;;;6.32;100.00;100413.81;4867679;29;20057;-78
2023/03/30 00:03:21;;;;;;;5.60;4.03;;;;;;;6.26;100.00;100411.22;4879898;29;20137;-80
2023/03/30 00:05:50;;;;;;;5.43;4.30;;;;;;;6.23;100.00;100405.13;4878936;29;20045;-80
2023/03/30 00:08:17;;;;;;;5.30;4.00;;;;;;;6.21;100.00;100408.59;4866763;29;20049;-78
2023/03/30 00:10:44;;;;;;;5.07;4.40;;;;;;;6.20;100.00;100409.50;4862609;29;20044;-80
2023/03/30 00:13:11;;;;;;;5.63;4.03;;;;;;;6.27;100.00;100414.72;4862344;29;20123;-79
2023/03/30 00:15:39;;;;;;;6.87;4.43;;;;;;;6.28;100.00;100406.81;4868850;29;20041;-77
2023/03/30 00:18:05;;;;;;;7.60;4.63;;;;;;;6.24;100.00;100397.25;4862191;29;20060;-79
2023/03/30 00:20:32;;;;;;;6.73;5.03;;;;;;;6.24;100.00;100393.75;4886942;29;20049;-79
2023/03/30 00:22:59;;;;;;;7.07;4.63;;;;;;;6.21;100.00;100395.50;4891464;29;20072;-80
2023/03/30 00:25:26;;;;;;;8.23;5.07;;;;;;;6.25;100.00;100393.75;4864759;29;20048;-79
2023/03/30 00:27:52;;;;;;;6.70;5.13;;;;;;;6.20;100.00;100391.13;4880147;29;20048;-79
2023/03/30 00:30:19;;;;;;;7.83;5.27;;;;;;;6.36;100.00;100376.16;4858888;29;20053;-80
2023/03/30 00:32:46;;;;;;;7.50;4.73;;;;;;;6.28;100.00;100375.34;4890578;29;20675;-79
2023/03/30 00:35:13;;;;;;;6.30;4.20;;;;;;;6.26;100.00;100376.25;4877632;29;20049;-80
2023/03/30 00:37:44;;;;;;;5.30;4.30;;;;;;;6.26;100.00;100364.00;4867812;29;20495;-78
2023/03/30 00:40:19;;;;;;;6.93;5.60;;;;;;;6.34;100.00;100369.19;4877555;29;20089;-78
2023/03/30 00:42:46;;;;;;;5.90;4.67;;;;;;;6.22;100.00;100357.00;4869420;29;20801;-80
2023/03/30 00:45:20;;;;;;;7.63;4.50;;;;;;;6.10;100.00;100358.00;4869227;29;20041;-79
2023/03/30 00:48:14;;;;;;;6.75;5.40;;;;;;;6.33;100.00;100357.81;4883280;29;20041;-78
2023/03/30 00:50:44;;;;;;;10.10;5.80;;;;;;;6.33;100.00;100349.94;4880085;29;20064;-80
2023/03/30 00:53:22;;;;;;;6.67;5.00;;;;;;;6.10;100.00;100347.50;4877719;29;20051;-80
2023/03/30 00:55:51;;;;;;;8.97;6.37;;;;;;;6.14;100.00;100332.63;4885626;29;20127;-78
2023/03/30 00:58:19;;;;;;;9.17;5.93;;;;;;;6.17;100.00;100338.72;4875636;29;20049;-78
2023/03/30 01:00:46;;;;;;;7.97;5.80;;;;;;;6.13;100.00;100328.22;4853119;29;20575;-78
2023/03/30 01:03:20;;;;;;;7.73;5.70;;;;;;;6.13;100.00;100329.09;4872663;29;20541;-79
2023/03/30 01:05:47;;;;;;;7.90;5.80;;;;;;;6.18;100.00;100323.84;4858439;29;20522;-77
2023/03/30 01:08:15;;;;;;;6.77;5.90;;;;;;;6.11;100.00;100322.13;4864977;29;20442;-81
2023/03/30 01:10:43;;;;;;;8.13;6.20;;;;;;;6.17;100.00;100308.97;4889288;29;20045;-79
2023/03/30 01:13:11;;;;;;;8.70;6.07;;;;;;;6.10;100.00;100308.16;4889441;29;20040;-78
2023/03/30 01:15:51;;;;;;;9.07;6.63;;;;;;;6.23;100.00;100301.06;4879691;29;20045;-78
2023/03/30 01:18:49;;;;;;;11.17;6.77;;;;;;;6.21;100.00;100281.84;4861419;29;20041;-79
2023/03/30 01:21:29;;;;;;;10.57;7.33;;;;;;;6.32;100.00;100287.00;4862352;29;20048;-79
2023/03/30 01:24:14;;;;;;;12.77;8.47;;;;;;;6.25;100.00;100280.06;4879652;29;20045;-80
2023/03/30 01:26:53;;;;;;;10.37;7.27;;;;;;;6.14;100.00;100270.53;4870715;29;20029;-79
2023/03/30 01:29:42;;;;;;;11.80;8.40;;;;;;;6.28;100.00;100280.03;4876395;29;20053;-79
2023/03/30 01:32:12;;;;;;;11.37;7.90;;;;;;;6.19;100.00;100268.72;4878611;29;20048;-80
2023/03/30 01:35:03;;;;;;;13.07;9.33;;;;;;;6.21;100.00;100261.72;4878694;29;20033;-78
2023/03/30 01:37:43;;;;;;;15.87;9.47;;;;;;;6.28;100.00;100259.91;4883641;29;20057;-79
2023/03/30 01:40:14;;;;;;;12.93;8.67;;;;;;;6.27;100.00;100259.94;4863363;29;20049;-79
2023/03/30 01:42:56;;;;;;;13.37;9.67;;;;;;;6.29;100.00;100259.03;4888009;29;20073;-78
2023/03/30 01:45:36;;;;;;;14.63;9.63;;;;;;;6.34;100.00;100259.84;4861997;29;20388;-79
2023/03/30 01:48:22;;;;;;;13.53;9.23;;;;;;;6.29;100.00;100247.66;4885723;29;20574;-78
2023/03/30 01:50:52;;;;;;;14.33;8.40;;;;;;;6.20;100.00;100240.75;4884223;29;20388;-79
2023/03/30 01:53:33;;;;;;;13.77;8.90;;;;;;;6.20;100.00;100244.25;4881596;29;20040;-78
2023/03/30 01:56:26;;;;;;;17.50;9.47;;;;;;;6.25;100.00;100235.47;4878967;29;20049;-80
2023/03/30 01:58:56;;;;;;;13.40;8.73;;;;;;;6.29;100.00;100235.41;4864578;29;20588;-80
2023/03/30 02:01:25;;;;;;;12.57;9.17;;;;;;;6.25;100.00;100222.34;4865903;29;20037;-79
2023/03/30 02:03:54;;;;;;;13.30;8.90;;;;;;;6.30;100.00;100220.53;4869825;29;20490;-80
2023/03/30 02:06:26;;;;;;;12.87;9.33;;;;;;;6.28;100.00;100217.06;4949968;23;20411;-79
2023/03/30 02:08:55;;;;;;;14.27;9.33;;;;;;;6.25;100.00;100231.09;4877084;29;20045;-79
2023/03/30 02:11:23;;;;;;;11.90;9.07;;;;;;;6.32;100.00;100237.16;4875232;29;20056;-79
2023/03/30 02:13:51;;;;;;;12.70;9.23;;;;;;;6.30;100.00;100252.88;4883762;29;20517;-79
2023/03/30 02:16:22;;;;;;;11.83;8.13;;;;;;;6.25;100.00;100248.59;4865271;29;20108;-79
2023/03/30 02:18:48;;;;;;;12.53;8.43;;;;;;;6.23;100.00;100242.50;4886935;29;20041;-79
2023/03/30 02:21:16;;;;;;;12.77;8.90;;;;;;;6.22;100.00;100231.09;4870122;29;20064;-79
2023/03/30 02:23:44;;;;;;;11.67;8.37;;;;;;;6.26;100.00;100240.69;4878989;29;20062;-79
2023/03/30 02:26:11;;;;;;;13.53;9.00;;;;;;;6.26;100.00;100238.06;4876678;29;20100;-79
2023/03/30 02:28:38;;;;;;;11.90;8.37;;;;;;;6.23;100.00;100232.88;4879276;29;20045;-79
2023/03/30 02:31:11;;;;;;;13.67;8.57;;;;;;;6.30;100.00;100217.91;4891774;29;20044;-79
2023/03/30 02:33:58;;;;;;;13.50;8.50;;;;;;;6.35;100.00;100213.50;4899194;29;20469;-78
2023/03/30 02:37:00;;;;;;;15.33;9.57;;;;;;;6.38;100.00;100197.72;4876416;29;20040;-79
2023/03/30 02:39:46;;;;;;;14.83;9.77;;;;;;;6.47;100.00;100189.75;4873961;29;20051;-79
2023/03/30 02:42:52;;;;;;;13.50;9.17;;;;;;;6.39;100.00;100184.59;4881305;29;20049;-79
2023/03/30 02:45:26;;;;;;;14.93;9.63;;;;;;;6.47;100.00;100174.00;4852667;29;21642;-79
2023/03/30 02:47:59;;;;;;;13.82;9.63;;;;;;;6.52;100.00;100179.22;4849636;29;20092;-79
2023/03/30 02:50:33;;;;;;;15.00;9.20;;;;;;;6.48;100.00;100167.88;4891244;29;20037;-79
2023/03/30 02:53:23;;;;;;;12.27;9.13;;;;;;;6.47;100.00;100174.91;4891017;29;20045;-79
2023/03/30 02:56:12;;;;;;;13.00;8.87;;;;;;;6.38;100.00;100174.09;4859154;29;20694;-78
2023/03/30 02:59:05;;;;;;;14.43;9.57;;;;;;;6.48;100.00;100170.50;4885423;29;20041;-78
2023/03/30 03:01:36;;;;;;;12.20;8.60;;;;;;;6.51;100.00;100161.72;4873934;29;20037;-78
2023/03/30 03:04:04;;;;;;;13.00;8.53;;;;;;;6.40;100.00;100159.25;4881798;29;20044;-78
2023/03/30 03:06:31;;;;;;;11.27;8.50;;;;;;;6.33;100.00;100157.56;4881730;29;20471;-78
2023/03/30 03:08:58;;;;;;;14.33;9.30;;;;;;;6.41;100.00;100139.97;4881081;29;20294;-78
2023/03/30 03:11:25;;;;;;;13.77;9.53;;;;;;;6.48;100.00;100132.03;4880224;29;20076;-78
2023/03/30 03:13:52;;;;;;;13.90;8.47;;;;;;;6.36;100.00;100131.28;4875514;29;20100;-78
2023/03/30 03:16:19;;;;;;;13.57;8.43;;;;;;;6.37;100.00;100120.75;4858434;29;20045;-78
2023/03/30 03:18:48;;;;;;;12.97;9.67;;;;;;;6.39;100.00;100108.53;4876204;29;20033;-78
2023/03/30 03:21:15;;;;;;;12.33;8.50;;;;;;;6.46;100.00;100101.41;4864047;29;20045;-78
2023/03/30 03:23:42;;;;;;;13.90;10.27;;;;;;;6.45;100.00;100102.31;4865448;29;20049;-78
2023/03/30 03:26:08;;;;;;;12.87;8.80;;;;;;;6.41;100.00;100103.25;4882089;29;20041;-79
2023/03/30 03:28:36;;;;;;;15.10;9.77;;;;;;;6.40;100.00;100099.75;4871555;29;20059;-79
2023/03/30 03:31:05;;;;;;;12.73;8.30;;;;;;;6.42;100.00;100100.59;4883020;29;20040;-78
2023/03/30 03:33:32;;;;;;;13.27;9.27;;;;;;;6.47;100.00;100109.28;4880514;29;20068;-79
2023/03/30 03:35:59;;;;;;;12.87;9.33;;;;;;;6.47;100.00;100104.03;4866343;29;20799;-78
2023/03/30 03:38:26;;;;;;;16.33;10.27;;;;;;;6.52;100.00;100106.59;4879428;29;20495;-79
2023/03/30 03:40:55;;;;;;;15.47;9.57;;;;;;;6.52;100.00;100113.59;4878554;29;20048;-78
2023/03/30 03:43:23;;;;;;;14.47;9.70;;;;;;;6.49;100.00;100110.13;4862615;29;20422;-79
2023/03/30 03:45:50;;;;;;;14.07;10.00;;;;;;;6.56;100.00;100110.03;4878479;29;20041;-78
2023/03/30 03:48:18;;;;;;;15.27;9.63;;;;;;;6.49;100.00;100101.41;4882824;29;20100;-79
2023/03/30 03:50:49;;;;;;;16.60;10.17;;;;;;;6.55;100.00;100093.41;4879454;29;20052;-79
2023/03/30 03:53:16;;;;;;;14.20;9.87;;;;;;;6.59;100.00;100081.13;4878595;29;20045;-78
2023/03/30 03:55:43;;;;;;;15.53;10.07;;;;;;;6.58;100.00;100075.03;4866253;29;20045;-79
2023/03/30 03:58:10;;;;;;;16.47;10.50;;;;;;;6.68;100.00;100083.63;4880523;29;20045;-79
2023/03/30 04:00:37;;;;;;;16.03;9.93;;;;;;;6.55;100.00;100088.16;4858449;29;20045;-79
2023/03/30 04:03:04;;;;;;;16.67;9.63;;;;;;;6.54;100.00;100086.44;4871697;29;20108;-79
2023/03/30 04:05:31;;;;;;;15.90;11.23;;;;;;;6.54;100.00;100083.81;4876556;29;20040;-79
2023/03/30 04:07:57;;;;;;;16.17;9.93;;;;;;;6.52;100.00;100082.97;4893292;29;20393;-79
2023/03/30 04:10:24;;;;;;;16.17;10.10;;;;;;;6.52;100.00;100075.09;4878555;29;20105;-79
2023/03/30 04:12:54;;;;;;;16.03;10.00;;;;;;;6.60;100.00;100070.63;4878250;29;20113;-79
2023/03/30 04:15:21;;;;;;;17.30;10.17;;;;;;;6.68;100.00;100068.75;4860652;29;20117;-79
2023/03/30 04:17:48;;;;;;;14.90;10.10;;;;;;;6.58;100.00;100064.53;4896968;29;20096;-79
2023/03/30 04:20:16;;;;;;;17.97;10.60;;;;;;;6.53;100.00;100058.47;4889612;29;20041;-78
2023/03/30 04:22:45;;;;;;;16.27;10.27;;;;;;;6.47;100.00;100054.19;4885855;29;20044;-79
2023/03/30 04:25:13;;;;;;;14.30;9.87;;;;;;;6.46;100.00;100054.19;4886207;29;20045;-79
2023/03/30 04:27:43;;;;;;;14.30;9.70;;;;;;;6.46;100.00;100052.41;4871453;29;20063;-78
2023/03/30 04:30:11;;;;;;;17.03;10.57;;;;;;;6.43;100.00;100055.09;4893189;29;20132;-78
2023/03/30 04:32:38;;;;;;;16.93;10.70;;;;;;;6.43;100.00;100044.59;4896602;29;20044;-78
2023/03/30 04:35:05;;;;;;;16.63;11.03;;;;;;;6.51;100.00;100049.75;4881359;29;20518;-78
2023/03/30 04:37:32;;;;;;;17.97;10.80;;;;;;;6.41;100.00;100050.78;4892563;29;20041;-78
2023/03/30 04:39:59;;;;;;;17.27;11.33;;;;;;;6.46;100.00;100055.03;4888548;29;20056;-78
2023/03/30 04:42:32;;;;;;;16.07;10.13;;;;;;;6.41;100.00;100049.00;4871587;29;20494;-81
2023/03/30 04:44:59;;;;;;;18.30;11.03;;;;;;;6.52;100.00;100054.09;4873815;29;20044;-80
2023/03/30 04:47:27;;;;;;;17.80;11.43;;;;;;;6.54;100.00;100049.69;4862160;29;20056;-79
2023/03/30 04:49:54;;;;;;;15.73;9.97;;;;;;;6.61;100.00;100040.00;4857116;29;20041;-79
2023/03/30 04:52:21;;;;;;;14.20;10.53;;;;;;;6.55;100.00;100042.69;4876313;29;20056;-78
2023/03/30 04:54:47;;;;;;;13.67;10.23;;;;;;;6.49;100.00;100039.28;4885381;29;20037;-78
2023/03/30 04:57:14;;;;;;;17.67;10.23;;;;;;;6.46;100.00;100030.56;4876685;29;20041;-79
2023/03/30 04:59:42;;;;;;;20.33;11.07;;;;;;;6.64;100.00;100026.81;4862464;29;20040;-78
2023/03/30 05:02:10;;;;;;;17.77;10.53;;;;;;;6.63;100.00;100025.94;4878347;29;20047;-78
2023/03/30 05:04:37;;;;;;;17.53;10.73;;;;;;;6.59;100.00;100011.16;4894615;29;20045;-79
2023/03/30 05:07:05;;;;;;;17.57;10.47;;;;;;;6.56;100.00;100008.56;4859753;29;20052;-79
2023/03/30 05:09:32;;;;;;;17.77;11.83;;;;;;;6.65;100.00;100000.56;4859120;29;20049;-78
2023/03/30 05:11:58;;;;;;;20.37;11.87;;;;;;;6.70;100.00;100001.34;4881555;29;20052;-78
2023/03/30 05:14:25;;;;;;;22.87;12.73;;;;;;;6.74;100.00;99994.31;4872441;29;20049;-79
2023/03/30 05:16:52;;;;;;;19.30;11.37;;;;;;;6.73;100.00;99976.81;4877666;29;20101;-78
2023/03/30 05:19:18;;;;;;;21.90;13.73;;;;;;;6.78;100.00;99970.59;4863626;29;20047;-80
2023/03/30 05:21:45;;;;;;;26.67;14.90;;;;;;;6.84;100.00;99979.28;4883758;29;20076;-79
2023/03/30 05:24:12;;;;;;;22.43;12.87;;;;;;;6.80;100.00;99983.69;4881381;29;20056;-78
2023/03/30 05:26:39;;;;;;;22.30;13.37;;;;;;;6.90;100.00;99982.66;4867007;29;20045;-78
2023/03/30 05:29:06;;;;;;;22.73;12.70;;;;;;;6.94;100.00;99981.72;4859871;29;20049;-78
2023/03/30 05:31:32;;;;;;;20.00;12.37;;;;;;;6.94;100.00;99979.09;4871539;29;20045;-78
2023/03/30 05:33:59;;;;;;;21.83;13.53;;;;;;;7.00;100.00;99978.13;4861877;29;20120;-79
2023/03/30 05:39:04;;;;;;;20.50;12.60;;;;;;;7.10;100.00;99965.69;5098800;23;20155;-79
2023/03/30 05:41:30;;;;;;;21.47;13.50;;;;;;;7.06;100.00;99967.50;4998534;23;20402;-78
2023/03/30 05:43:57;;;;;;;19.53;12.07;;;;;;;6.93;100.00;99958.97;4851681;29;20098;-78
2023/03/30 05:46:24;;;;;;;20.17;12.60;;;;;;;6.93;100.00;99958.97;4844539;29;20038;-78
2023/03/30 05:48:50;;;;;;;24.80;13.83;;;;;;;7.11;100.00;99965.66;4833413;29;20412;-78
2023/03/30 05:51:17;;;;;;;20.37;12.50;;;;;;;7.24;100.00;99959.31;4843984;29;20408;-78
2023/03/30 05:53:44;;;;;;;19.10;12.80;;;;;;;7.13;100.00;99942.84;4846290;29;20037;-78
2023/03/30 05:56:10;;;;;;;18.80;11.20;;;;;;;7.11;100.00;99941.16;4848104;29;20068;-78
2023/03/30 05:58:37;;;;;;;17.03;11.63;;;;;;;7.17;100.00;99930.56;4860437;29;20041;-77
2023/03/30 06:01:04;;;;;;;20.13;12.57;;;;;;;7.22;100.00;99920.81;4876206;29;20045;-78
2023/03/30 06:03:31;;;;;;;15.73;11.30;;;;;;;7.18;100.00;99922.63;4844799;29;20057;-78
2023/03/30 06:05:59;;;;;;;17.37;11.10;;;;;;;7.33;100.00;99917.09;4851717;29;20496;-78
2023/03/30 06:08:26;;;;;;;18.40;11.03;;;;;;;7.28;100.00;99929.44;4827292;29;20075;-77
2023/03/30 06:10:54;;;;;;;20.23;11.67;;;;;;;7.38;100.00;99924.88;4829665;29;20054;-77
2023/03/30 06:13:21;;;;;;;17.67;11.03;;;;;;;7.34;100.00;99925.84;4816543;29;20136;-79
2023/03/30 06:15:48;;;;;;;17.77;11.93;;;;;;;7.39;100.00;99915.22;4845852;29;20065;-77
2023/03/30 06:18:15;;;;;;;17.70;11.10;;;;;;;7.43;100.00;99906.41;4861906;29;20073;-77
2023/03/30 06:20:46;;;;;;;18.23;11.17;;;;;;;7.49;100.00;99901.91;4847011;29;20060;-78
2023/03/30 06:23:14;;;;;;;17.50;10.87;;;;;;;7.58;100.00;99895.59;4846868;29;20061;-77
2023/03/30 06:25:45;;;;;;;16.87;10.97;;;;;;;7.59;100.00;99898.19;4850052;29;20523;-78
2023/03/30 06:28:11;;;;;;;17.07;11.47;;;;;;;7.69;100.00;99898.00;4843091;29;20042;-78
2023/03/30 06:30:38;;;;;;;19.47;10.93;;;;;;;7.80;100.00;99881.09;4829717;29;20144;-77
2023/03/30 06:33:05;;;;;;;18.57;11.53;;;;;;;7.79;100.00;99889.88;4860971;29;20048;-78
2023/03/30 06:35:31;;;;;;;17.17;10.43;;;;;;;7.87;100.00;99894.97;4857161;29;20036;-78
2023/03/30 06:37:58;;;;;;;14.40;9.83;;;;;;;7.94;100.00;99888.69;4865461;29;20136;-78
2023/03/30 06:40:25;;;;;;;18.83;10.93;;;;;;;7.98;100.00;99887.69;4846565;29;21074;-78
2023/03/30 06:42:52;;;;;;;15.00;10.03;;;;;;;7.99;100.00;99878.94;4858170;29;20049;-79
2023/03/30 06:45:19;;;;;;;15.87;9.80;;;;;;;8.06;100.00;99880.50;4859870;29;20124;-78
2023/03/30 06:47:46;;;;;;;18.00;10.30;;;;;;;8.15;100.00;99882.91;4830197;29;20048;-79
2023/03/30 06:50:13;;;;;;;15.33;9.77;;;;;;;8.17;100.00;99869.75;4844530;29;20375;-78
2023/03/30 06:52:40;;;;;;;17.47;10.40;;;;;;;8.27;100.00;99865.13;4862318;29;20041;-77
2023/03/30 06:55:07;;;;;;;14.13;9.90;;;;;;;8.43;100.00;99872.66;4862767;29;20050;-78
2023/03/30 06:57:33;;;;;;;13.77;9.40;;;;;;;8.43;100.00;99877.06;4862188;29;20389;-78
2023/03/30 07:00:00;;;;;;;12.20;8.60;;;;;;;8.50;100.00;99888.31;4864498;29;20133;-78
2023/03/30 07:02:28;;;;;;;14.33;9.83;;;;;;;8.59;100.00;99883.69;4843532;29;20053;-78
2023/03/30 07:04:55;;;;;;;13.80;8.30;;;;;;;8.66;100.00;99881.75;4847607;29;20541;-78
2023/03/30 07:07:22;;;;;;;11.97;8.00;;;;;;;8.73;100.00;99880.69;4837110;29;20045;-78
2023/03/30 07:09:48;;;;;;;12.00;8.60;;;;;;;8.96;100.00;99893.28;4869656;29;20041;-78
2023/03/30 07:12:15;;;;;;;12.90;9.27;;;;;;;8.99;100.00;99898.44;4846823;29;20046;-78
2023/03/30 07:14:42;;;;;;;8.87;6.93;;;;;;;8.97;100.00;99893.22;4848491;29;20037;-78
2023/03/30 07:17:08;;;;;;;14.03;7.83;;;;;;;9.00;100.00;99877.34;4855865;29;20049;-78
2023/03/30 07:19:35;;;;;;;11.07;7.20;;;;;;;8.93;100.00;99883.69;4870781;29;20034;-79
2023/03/30 07:22:02;;;;;;;12.00;6.77;;;;;;;8.90;100.00;99888.16;4827693;29;20049;-78
2023/03/30 07:24:30;;;;;;;10.97;7.23;;;;;;;8.84;100.00;99885.69;4868839;29;20040;-79
2023/03/30 07:26:56;;;;;;;8.80;6.88;;;;;;;8.77;100.00;99885.00;4865389;29;20069;-78
2023/03/30 07:29:27;;;;;;;8.43;6.50;;;;;;;8.91;100.00;99877.59;4856214;29;20621;-79
2023/03/30 07:31:55;;;;;;;12.07;7.67;;;;;;;8.81;100.00;99868.19;4859447;29;20061;-78
2023/03/30 07:34:22;;;;;;;9.53;6.30;;;;;;;8.77;100.00;99856.00;4876754;29;20127;-78
2023/03/30 07:36:49;;;;;;;10.68;6.90;;;;;;;8.81;100.00;99841.00;4862278;29;20049;-78
2023/03/30 07:39:15;;;;;;;10.33;7.20;;;;;;;8.79;100.00;99824.38;4832703;29;20577;-78
2023/03/30 07:41:42;;;;;;;9.00;6.60;;;;;;;8.98;100.00;99826.44;4813950;29;20077;-77
2023/03/30 07:44:09;;;;;;;9.53;6.77;;;;;;;9.28;100.00;99827.38;4848304;29;20037;-78
2023/03/30 07:46:35;;;;;;;9.70;6.97;;;;;;;9.35;100.00;99838.63;4846179;29;20408;-78
2023/03/30 07:49:02;;;;;;;11.63;7.00;;;;;;;9.33;100.00;99837.78;4862896;29;20072;-78
2023/03/30 07:51:29;;;;;;;13.03;6.80;;;;;;;9.38;100.00;99827.97;4847372;29;20061;-78
2023/03/30 07:53:56;;;;;;;10.13;6.80;;;;;;;9.32;100.00;99822.88;4847000;29;20042;-78
2023/03/30 07:56:23;;;;;;;9.32;7.03;;;;;;;9.38;100.00;99832.38;4830282;29;20085;-79
2023/03/30 07:58:49;;;;;;;9.50;6.57;;;;;;;9.34;100.00;99833.41;4846976;29;20045;-78
2023/03/30 08:01:16;;;;;;;8.83;6.33;;;;;;;9.51;100.00;99825.88;4859873;29;20045;-78
2023/03/30 08:03:47;;;;;;;10.00;6.07;;;;;;;9.53;100.00;99821.41;4860998;29;20054;-78
2023/03/30 08:06:14;;;;;;;9.90;6.43;;;;;;;9.46;100.00;99804.91;4861921;29;20491;-78
2023/03/30 08:08:42;;;;;;;9.38;7.32;;;;;;;9.50;100.00;99818.84;4861143;29;20412;-78
2023/03/30 08:11:11;;;;;;;10.75;6.97;;;;;;;9.69;100.00;99824.44;4840625;29;20050;-77
2023/03/30 08:13:38;;;;;;;8.60;6.57;;;;;;;9.74;100.00;99818.09;4863804;29;20499;-77
2023/03/30 08:16:05;;;;;;;9.50;6.25;;;;;;;9.96;100.00;99820.09;4860378;29;20037;-78
2023/03/30 08:18:31;;;;;;;10.40;6.53;;;;;;;10.00;100.00;99809.38;4846368;29;20480;-79
2023/03/30 08:20:58;;;;;;;8.00;5.78;;;;;;;10.05;100.00;99804.84;4859534;29;20037;-78
2023/03/30 08:23:25;;;;;;;8.80;6.30;;;;;;;10.31;100.00;99797.88;4842605;29;20057;-78
2023/03/30 08:25:56;;;;;;;9.38;6.70;;;;;;;10.62;100.00;99798.56;4866163;29;20064;-78
2023/03/30 08:28:22;;;;;;;9.60;6.20;;;;;;;10.86;100.00;99794.22;4855729;29;20034;-78
2023/03/30 08:30:49;;;;;;;9.73;6.38;;;;;;;10.99;100.00;99784.06;4842199;29;20061;-77
2023/03/30 08:33:16;;;;;;;7.97;6.07;;;;;;;11.15;100.00;99789.66;4828509;29;20051;-79
2023/03/30 08:35:45;;;;;;;9.05;5.65;;;;;;;11.26;100.00;99783.03;4861396;29;20494;-78
2023/03/30 08:38:16;;;;;;;7.35;5.53;;;;;;;11.34;100.00;99785.41;4876304;29;20128;-78
2023/03/30 08:40:45;;;;;;;8.15;5.28;;;;;;;11.51;100.00;99782.13;4845626;29;20060;-78
2023/03/30 08:43:34;;;;;;;9.13;6.32;;;;;;;11.56;100.00;99781.03;4826981;29;20101;-79
2023/03/30 08:46:01;;;;;;;7.32;5.35;;;;;;;11.59;100.00;99780.03;4858179;29;20820;-78
2023/03/30 08:48:34;;;;;;;7.40;5.40;;;;;;;11.68;100.00;99779.69;4842713;29;20076;-80
2023/03/30 08:51:23;;;;;;;9.82;6.03;;;;;;;11.85;100.00;99765.81;4831459;29;20057;-78
2023/03/30 08:54:01;;;;;;;9.25;5.53;;;;;;;12.03;100.00;99764.25;4842533;29;20098;-78
2023/03/30 08:56:31;;;;;;;8.65;4.93;;;;;;;12.20;100.00;99759.09;4849055;29;20126;-78
2023/03/30 08:59:41;;;;;;;6.47;4.55;;;;;;;12.38;100.00;99766.28;4842686;29;20037;-79
2023/03/30 09:02:27;;;;;;;7.97;4.80;;;;;;;12.50;100.00;99758.72;4857814;29;20057;-78
2023/03/30 09:05:00;;;;;;;8.50;5.18;;;;;;;12.65;100.00;99751.00;4842969;29;20076;-79
2023/03/30 09:07:31;;;;;;;8.60;4.63;;;;;;;12.79;100.00;99760.13;4840576;29;20047;-79
2023/03/30 09:09:59;;;;;;;7.13;4.65;;;;;;;12.79;99.40;99760.13;4851845;29;20144;-78
2023/03/30 09:13:01;;;;;;;5.30;4.78;;;;;;;12.72;100.00;99758.69;4857619;29;20049;-78
2023/03/30 09:15:39;;;;;;;6.65;4.63;;;;;;;12.60;100.00;99760.06;4890086;29;20527;-78
2023/03/30 09:18:10;;;;;;;5.35;4.50;;;;;;;12.67;100.00;99750.91;4846768;29;20443;-78
2023/03/30 09:20:38;;;;;;;5.95;4.50;;;;;;;12.83;100.00;99751.97;4852181;29;20081;-79
2023/03/30 09:23:11;;;;;;;9.30;5.40;;;;;;;13.15;98.71;99744.38;4849206;29;20050;-83
2023/03/30 09:25:43;;;;;;;7.15;5.35;;;;;;;13.29;93.29;99738.47;4842189;29;20049;-79
2023/03/30 09:28:20;;;;;;;5.35;4.13;;;;;;;13.43;94.61;99741.31;4842348;29;20038;-79
2023/03/30 09:30:53;;;;;;;11.65;6.90;;;;;;;13.52;93.94;99741.75;4841863;29;20140;-78
2023/03/30 09:33:44;;;;;;;6.88;4.45;;;;;;;13.67;91.84;99741.97;4856754;29;20069;-79
2023/03/30 09:36:25;;;;;;;6.63;4.82;;;;;;;13.84;92.98;99741.16;4838965;29;20487;-78
2023/03/30 09:38:55;;;;;;;;;;;;;;;13.76;87.84;99744.19;4826884;29;20104;-78
2023/03/30 09:41:48;;;;;;;7.53;4.00;;;;;;;14.02;90.69;99735.78;4856752;29;20445;-78
2023/03/30 09:44:26;;;;;;;7.40;4.03;;;;;;;14.21;90.41;99725.13;4870487;29;20057;-79
2023/03/30 09:46:56;;;;;;;10.77;4.30;;;;;;;14.29;89.29;99716.75;4861369;29;20048;-78
2023/03/30 09:49:27;;;;;;;4.35;3.70;;;;;;;14.43;88.58;99719.56;4857368;29;20051;-78
2023/03/30 09:51:55;;;;;;;6.88;4.07;;;;;;;14.53;85.65;99718.19;4841633;29;20051;-78
2023/03/30 09:54:22;;;;;;;6.22;4.03;;;;;;;14.61;88.30;99721.31;4836980;29;20078;-80
2023/03/30 09:56:52;;;;;;;4.72;3.28;;;;;;;14.78;88.89;99723.09;4857234;29;20049;-80
2023/03/30 09:59:30;;;;;;;6.18;3.70;;;;;;;14.99;83.09;99718.44;4856926;29;20041;-78
2023/03/30 10:02:12;;;;;;;4.88;3.80;;;;;;;15.19;83.63;99717.38;4857130;29;20577;-79
2023/03/30 10:04:58;;;;;;;6.05;4.00;;;;;;;15.41;83.12;99709.94;4856562;29;20752;-80
2023/03/30 10:07:28;;;;;;;8.25;4.38;;;;;;;15.68;79.89;99696.91;4855802;29;20049;-81
2023/03/30 10:09:57;;;;;;;4.97;3.20;;;;;;;15.76;77.01;99709.78;4821038;29;20041;-80
2023/03/30 10:12:25;;;;;;;6.40;3.75;;;;;;;15.85;78.60;99711.06;4857167;29;20052;-79
2023/03/30 10:14:53;;;;;;;5.55;3.50;;;;;;;15.75;78.92;99718.72;4856887;29;20050;-78
2023/03/30 10:17:23;;;;;;;6.03;4.03;;;;;;;15.68;80.08;99720.88;4855704;29;20044;-79
2023/03/30 13:04:37;;;;;;;3.08;2.20;;;;;;;17.67;61.38;99532.53;4980892;23;20137;-81
2023/03/30 13:07:06;;;;;;;8.10;2.70;;;;;;;17.50;62.69;99525.66;4962181;28;20105;-80
2023/03/30 13:09:50;;;;;;;10.13;2.35;;;;;;;17.37;64.78;99533.63;4963843;28;20043;-78
2023/03/30 13:12:30;;;;;;;3.50;2.33;;;;;;;17.31;63.71;99523.34;4970785;28;20097;-79
2023/03/30 13:15:56;;;;;;;4.80;2.30;;;;;;;17.07;64.21;99517.81;4939663;29;20121;-81
2023/03/30 13:18:28;;;;;;;5.68;2.33;;;;;;;17.06;66.68;99523.25;4872788;29;20503;-80
2023/03/30 13:20:54;;;;;;;4.25;2.20;;;;;;;17.19;65.11;99509.97;4875796;29;20052;-78
2023/03/30 13:23:21;;;;;;;7.30;3.35;;;;;;;17.26;66.45;99520.13;4930185;29;20061;-78
2023/03/30 13:26:06;;;;;;;6.20;2.53;;;;;;;17.19;66.44;99518.81;4961627;28;20523;-79
2023/03/30 13:29:02;;;;;;;6.63;2.67;;;;;;;17.10;66.07;99528.28;4942959;28;20086;-80
2023/03/30 13:31:34;;;;;;;6.97;2.78;;;;;;;16.86;68.51;99528.06;4953025;28;20035;-80
2023/03/30 13:34:19;;;;;;;5.10;2.20;;;;;;;16.52;70.84;99537.31;4984276;28;20042;-78
2023/03/30 13:36:52;;;;;;;;;;;;;;;16.15;76.70;99564.53;4959144;28;20050;-78
2023/03/30 13:39:29;;;;;;;3.60;2.40;;;;;;;15.67;85.29;99588.69;4969095;28;19929;-79
2023/03/30 13:42:03;;;;;;;4.00;2.30;;;;;;;15.01;91.35;99604.00;4953965;28;20073;-81
2023/03/30 13:44:42;;;;;;;2.92;1.92;;;;;;;14.74;96.97;99595.72;4939356;28;20475;-80
2023/03/30 13:47:25;;;;;;;5.60;2.50;;;;;;;14.62;100.00;99589.25;4953710;28;20045;-81
2023/03/30 13:49:57;;;;;;;5.15;2.72;;;;;;;14.37;100.00;99611.78;4934463;29;20548;-78
2023/03/30 13:52:31;;;;;;;3.97;2.63;;;;;;;14.18;100.00;99604.88;4930042;28;20427;-79
2023/03/30 13:54:59;;;;;;;5.18;2.88;;;;;;;14.00;100.00;99601.38;4923529;28;20183;-78
2023/03/30 13:57:32;;;;;;;4.97;3.08;;;;;;;13.79;100.00;99601.56;4971900;28;20106;-77
2023/03/30 14:00:32;;;;;;;4.93;2.75;;;;;;;13.57;100.00;99606.19;4945760;28;20050;-79
2023/03/30 14:03:29;;;;;;;5.25;2.80;;;;;;;13.30;100.00;99611.06;4927845;28;20121;-79
2023/03/30 14:06:12;;;;;;;4.40;2.95;;;;;;;13.19;100.00;99595.66;4977956;28;20039;-80
2023/03/30 14:08:43;;;;;;;4.65;2.47;;;;;;;12.99;100.00;99593.06;4965761;28;20491;-80
2023/03/30 14:11:33;;;;;;;3.75;2.63;;;;;;;12.93;100.00;99596.84;4946034;28;20050;-79
2023/03/30 14:14:02;;;;;;;6.05;2.67;;;;;;;12.84;100.00;99591.13;4986825;28;20057;-80
2023/03/30 14:16:35;;;;;;;5.45;3.28;;;;;;;12.84;100.00;99588.47;4958255;28;20073;-80
2023/03/30 14:19:14;;;;;;;3.97;3.23;;;;;;;12.76;100.00;99572.06;4953035;28;20042;-79
2023/03/30 14:21:45;;;;;;;4.22;3.10;;;;;;;12.70;100.00;99586.50;4950460;28;20039;-79
2023/03/30 14:24:32;;;;;;;2.78;2.42;;;;;;;12.60;100.00;99586.03;4970709;28;20047;-79
2023/03/30 14:27:05;;;;;;;3.35;2.40;;;;;;;12.58;100.00;99582.59;4948198;28;20051;-79
2023/03/30 14:29:32;;;;;;;4.47;2.67;;;;;;;12.49;100.00;99592.75;4936094;28;20043;-79